createdAt,value
2023-02-06T00:05:00.287Z,0.90
2023-02-06T00:10:05.778Z,0.90
2023-02-06T00:15:10.275Z,0.90
2023-02-06T00:20:14.554Z,0.90
2023-02-06T00:25:19.547Z,0.90
2023-02-06T00:30:22.980Z,1.00
2023-02-06T00:35:26.378Z,1.00
2023-02-06T00:40:31.272Z,1.00
2023-02-06T00:45:35.284Z,1.00
2023-02-06T00:50:39.669Z,1.00
2023-02-06T00:55:44.775Z,1.00
2023-02-06T01:00:48.192Z,1.00
2023-02-06T01:05:51.818Z,1.00
2023-02-06T01:10:56.997Z,1.00
2023-02-06T01:16:00.426Z,1.00
2023-02-06T01:21:08.058Z,0.90
2023-02-06T01:26:16.015Z,1.00
2023-02-06T01:31:22.141Z,0.90
2023-02-06T01:36:26.073Z,0.90
2023-02-06T01:41:31.122Z,0.90
2023-02-06T01:46:34.879Z,0.80
2023-02-06T01:51:38.737Z,0.80
2023-02-06T01:56:48.976Z,0.80
2023-02-06T02:01:52.450Z,0.70
2023-02-06T02:07:05.798Z,0.70
2023-02-06T02:12:10.410Z,0.70
2023-02-06T02:17:28.841Z,0.70
2023-02-06T02:22:45.262Z,0.60
2023-02-06T02:28:08.928Z,0.60
2023-02-06T02:33:42.376Z,0.60
2023-02-06T02:38:57.161Z,0.60
2023-02-06T02:44:06.226Z,0.40
2023-02-06T02:49:14.814Z,0.30
2023-02-06T02:54:19.930Z,0.30
2023-02-06T02:59:28.950Z,0.30
2023-02-06T03:04:38.859Z,0.30
2023-02-06T03:09:54.604Z,0.40
2023-02-06T03:15:04.111Z,0.40
2023-02-06T03:20:10.455Z,0.50
2023-02-06T03:25:19.843Z,0.50
2023-02-06T03:30:26.880Z,0.50
2023-02-06T03:35:35.191Z,0.50
2023-02-06T03:40:41.920Z,0.50
2023-02-06T03:45:48.181Z,0.50
2023-02-06T03:50:54.320Z,0.50
2023-02-06T03:56:07.510Z,0.50
2023-02-06T04:01:11.703Z,0.50
2023-02-06T04:06:15.148Z,0.50
2023-02-06T04:11:19.976Z,0.50
2023-02-06T04:16:23.467Z,0.60
2023-02-06T04:21:26.961Z,0.60
2023-02-06T04:26:31.782Z,0.60
2023-02-06T04:31:35.327Z,0.60
2023-02-06T04:36:39.215Z,0.60
2023-02-06T04:41:43.997Z,0.60
2023-02-06T04:46:47.907Z,0.60
2023-02-06T04:51:51.574Z,0.60
2023-02-06T04:56:56.703Z,0.60
2023-02-06T05:02:00.128Z,0.60
2023-02-06T05:07:05.518Z,0.60
2023-02-06T05:12:12.054Z,0.70
2023-02-06T05:17:16.846Z,0.60
2023-02-06T05:22:20.343Z,0.70
2023-02-06T05:27:25.751Z,0.70
2023-02-06T05:32:29.334Z,0.70
2023-02-06T05:37:32.827Z,0.70
2023-02-06T05:42:37.878Z,0.60
2023-02-06T05:47:41.301Z,0.60
2023-02-06T05:52:44.734Z,0.60
2023-02-06T05:57:49.998Z,0.70
2023-02-06T06:02:53.485Z,0.70
2023-02-06T06:07:57.338Z,0.70
2023-02-06T06:13:02.129Z,0.70
2023-02-06T06:18:05.683Z,0.70
2023-02-06T06:23:09.096Z,0.70
2023-02-06T06:28:13.973Z,0.70
2023-02-06T06:33:17.884Z,0.80
2023-02-06T06:38:21.358Z,0.80
2023-02-06T06:43:26.292Z,0.80
2023-02-06T06:48:30.081Z,0.80
2023-02-06T06:53:33.475Z,0.80
2023-02-06T06:58:39.149Z,0.80
2023-02-06T07:03:44.227Z,0.80
2023-02-06T07:08:47.683Z,0.80
2023-02-06T07:13:52.480Z,0.90
2023-02-06T07:18:55.952Z,0.90
2023-02-06T07:23:59.708Z,0.80
2023-02-06T07:29:04.699Z,0.80
2023-02-06T07:34:08.176Z,0.70
2023-02-06T07:39:11.571Z,0.80
2023-02-06T07:44:16.672Z,0.80
2023-02-06T07:49:20.126Z,0.90
2023-02-06T07:54:23.650Z,1.00
2023-02-06T07:59:28.793Z,1.00
2023-02-06T08:04:35.340Z,1.10
2023-02-06T08:09:38.849Z,1.20
2023-02-06T08:14:45.961Z,1.30
2023-02-06T08:19:49.939Z,1.40
2023-02-06T08:24:53.332Z,1.50
2023-02-06T08:29:59.448Z,1.60
2023-02-06T08:35:04.218Z,1.60
2023-02-06T08:40:08.764Z,1.70
2023-02-06T08:45:13.501Z,1.70
2023-02-06T08:50:17.555Z,1.70
2023-02-06T08:55:25.284Z,1.80
2023-02-06T09:00:30.333Z,1.80
2023-02-06T09:05:34.412Z,1.90
2023-02-06T09:10:38.463Z,2.00
2023-02-06T09:15:43.401Z,2.10
2023-02-06T09:20:50.482Z,2.20
2023-02-06T09:25:54.500Z,2.20
2023-02-06T09:30:59.962Z,2.30
2023-02-06T09:36:05.279Z,2.40
2023-02-06T09:41:17.175Z,2.40
2023-02-06T09:46:28.101Z,2.40
2023-02-06T09:51:41.602Z,2.50
2023-02-06T09:56:54.087Z,2.60
2023-02-06T10:02:22.146Z,2.60
2023-02-06T10:07:51.077Z,2.70
2023-02-06T10:13:01.969Z,2.70
2023-02-06T10:18:14.742Z,2.80
2023-02-06T10:23:25.446Z,2.80
2023-02-06T10:28:30.947Z,2.90
2023-02-06T10:33:42.250Z,3.00
2023-02-06T10:39:18.125Z,3.00
2023-02-06T10:44:28.469Z,3.10
2023-02-06T10:49:39.834Z,3.10
2023-02-06T10:54:52.070Z,3.10
2023-02-06T11:00:01.184Z,3.20
2023-02-06T11:05:10.667Z,3.20
2023-02-06T11:10:17.708Z,3.20
2023-02-06T11:15:26.477Z,3.20
2023-02-06T11:20:34.670Z,3.30
2023-02-06T11:25:38.586Z,3.50
2023-02-06T11:30:54.182Z,3.50
2023-02-06T11:36:00.751Z,3.60
2023-02-06T11:41:06.478Z,3.70
2023-02-06T11:46:16.923Z,3.80
2023-02-06T11:51:21.879Z,3.80
2023-02-06T11:56:26.014Z,3.80
2023-02-06T12:01:43.139Z,3.80
2023-02-06T12:06:48.649Z,3.80
2023-02-06T12:11:58.109Z,3.70
2023-02-06T12:17:04.143Z,3.70
2023-02-06T12:22:16.986Z,3.60
2023-02-06T12:27:24.918Z,3.50
2023-02-06T12:32:33.745Z,3.60
2023-02-06T12:37:45.191Z,3.60
2023-02-06T12:42:57.489Z,3.50
2023-02-06T12:48:07.658Z,2.40
2023-02-06T12:53:19.468Z,1.20
2023-02-06T12:58:28.141Z,0.40
2023-02-06T13:03:35.476Z,0.00
2023-02-06T13:08:46.006Z,-0.40
2023-02-06T13:13:50.850Z,-0.50
2023-02-06T13:18:54.490Z,-0.60
2023-02-06T13:24:18.589Z,-0.60
2023-02-06T13:29:27.036Z,-0.60
2023-02-06T13:34:30.866Z,-0.70
2023-02-06T13:39:35.688Z,-0.60
2023-02-06T13:44:40.258Z,-0.60
2023-02-06T13:50:07.245Z,-0.60
2023-02-06T13:55:27.161Z,-0.60
2023-02-06T14:00:34.210Z,-0.60
2023-02-06T14:05:48.507Z,-0.70
2023-02-06T14:11:24.426Z,-0.70
2023-02-06T14:16:40.510Z,-0.80
2023-02-06T14:21:52.436Z,-0.80
2023-02-06T14:27:09.926Z,-0.70
2023-02-06T14:32:38.983Z,-0.70
2023-02-06T14:37:58.190Z,-0.60
2023-02-06T14:43:07.429Z,-0.20
2023-02-06T14:48:21.997Z,0.40
2023-02-06T14:53:29.848Z,0.70
2023-02-06T14:58:35.034Z,1.00
2023-02-06T15:03:40.286Z,1.20
2023-02-06T15:08:49.543Z,1.40
2023-02-06T15:13:57.248Z,1.60
2023-02-06T15:19:21.099Z,1.70
2023-02-06T15:24:50.935Z,1.80
2023-02-06T15:29:56.256Z,2.00
2023-02-06T15:35:00.675Z,2.00
2023-02-06T15:40:09.589Z,2.10
2023-02-06T15:45:21.973Z,2.00
2023-02-06T15:50:28.506Z,2.00
2023-02-06T15:55:36.805Z,1.90
2023-02-06T16:00:42.880Z,1.90
2023-02-06T16:05:46.621Z,1.90
2023-02-06T16:10:52.763Z,1.80
2023-02-06T16:16:08.447Z,1.80
2023-02-06T16:21:14.769Z,1.80
2023-02-06T16:26:20.173Z,1.80
2023-02-06T16:31:26.858Z,1.80
2023-02-06T16:36:32.638Z,1.70
2023-02-06T16:41:38.280Z,1.70
2023-02-06T16:46:43.310Z,1.70
2023-02-06T16:51:48.523Z,1.70
2023-02-06T16:56:54.246Z,1.70
2023-02-06T17:01:59.359Z,1.60
2023-02-06T17:07:03.784Z,1.60
2023-02-06T17:12:11.074Z,1.60
2023-02-06T17:17:18.495Z,1.60
2023-02-06T17:22:24.919Z,1.60
2023-02-06T17:27:28.461Z,1.50
2023-02-06T17:32:33.268Z,1.50
2023-02-06T17:37:37.128Z,1.40
2023-02-06T17:42:40.865Z,1.50
2023-02-06T17:47:46.155Z,1.50
2023-02-06T17:52:50.323Z,1.40
2023-02-06T17:57:55.388Z,1.40
2023-02-06T18:03:01.286Z,1.40
2023-02-06T18:08:05.230Z,1.30
2023-02-06T18:13:10.491Z,1.30
2023-02-06T18:18:15.353Z,1.30
2023-02-06T18:23:19.474Z,1.30
2023-02-06T18:28:23.093Z,1.30
2023-02-06T18:33:28.068Z,1.30
2023-02-06T18:38:31.866Z,1.30
2023-02-06T18:43:35.291Z,1.30
2023-02-06T18:48:40.554Z,1.20
2023-02-06T18:53:44.456Z,1.10
2023-02-06T18:58:48.200Z,1.10
2023-02-06T19:03:54.137Z,1.10
2023-02-06T19:08:58.700Z,1.10
2023-02-06T19:14:02.694Z,1.10
2023-02-06T19:19:08.627Z,1.10
2023-02-06T19:24:14.270Z,1.10
2023-02-06T19:29:34.405Z,1.00
2023-02-06T19:34:42.118Z,0.90
2023-02-06T19:39:45.735Z,1.00
2023-02-06T19:44:53.952Z,0.90
2023-02-06T19:49:59.127Z,0.90
2023-02-06T19:55:03.048Z,0.90
2023-02-06T20:00:10.476Z,0.90
2023-02-06T20:05:15.608Z,0.80
2023-02-06T20:10:19.115Z,0.80
2023-02-06T20:15:22.948Z,0.80
2023-02-06T20:20:28.264Z,0.80
2023-02-06T20:25:31.865Z,0.80
2023-02-06T20:30:36.308Z,0.80
2023-02-06T20:35:44.117Z,0.80
2023-02-06T20:40:51.440Z,0.80
2023-02-06T20:45:54.996Z,0.80
2023-02-06T20:51:00.562Z,0.80
2023-02-06T20:56:04.067Z,0.80
2023-02-06T21:01:14.011Z,0.80
2023-02-06T21:06:19.105Z,0.70
2023-02-06T21:11:23.353Z,0.70
2023-02-06T21:16:28.583Z,0.70
2023-02-06T21:21:33.831Z,0.70
2023-02-06T21:26:38.144Z,0.70
2023-02-06T21:31:41.666Z,0.70
2023-02-06T21:36:47.470Z,0.70
2023-02-06T21:41:53.822Z,0.60
2023-02-06T21:46:57.334Z,0.60
2023-02-06T21:52:02.309Z,0.60
2023-02-06T21:57:06.060Z,0.60
2023-02-06T22:02:11.418Z,0.50
2023-02-06T22:07:16.162Z,0.40
2023-02-06T22:12:19.580Z,0.40
2023-02-06T22:17:22.989Z,0.40
2023-02-06T22:22:28.069Z,0.40
2023-02-06T22:27:33.747Z,0.40
2023-02-06T22:32:38.232Z,0.30
2023-02-06T22:37:44.575Z,0.30
2023-02-06T22:42:48.145Z,0.20
2023-02-06T22:47:51.564Z,0.20
2023-02-06T22:53:19.216Z,0.20
2023-02-06T22:58:22.626Z,0.20
2023-02-06T23:03:26.028Z,0.10
2023-02-06T23:08:30.972Z,0.10
2023-02-06T23:13:34.710Z,0.10
2023-02-06T23:18:38.955Z,0.10
2023-02-06T23:23:44.263Z,0.00
2023-02-06T23:28:47.922Z,-0.10
2023-02-06T23:33:51.715Z,-0.10
2023-02-06T23:38:56.834Z,-0.10
2023-02-06T23:44:02.305Z,-0.10
2023-02-06T23:49:06.416Z,-0.20
2023-02-06T23:54:11.634Z,-0.20
2023-02-06T23:59:15.390Z,-0.20
